Time;durP1;ratioP1;P1;durP2;ratioP2;P2;SDS_P1;SDS_P2;PMS_P1;PMS_P2;Temp;Humidity;BMP_temperature;BMP_pressure;BME280_temperature;BME280_humidity;BME280_pressure;Samples;Min_cycle;Max_cycle;Signal;HPM_P1;HPM_P2
2024/02/14 00:01:04;;;;;;;23.15;10.10;;;7.40;99.90;;;;;;6312466;22;20045;-89
2024/02/14 00:03:30;;;;;;;17.63;7.68;;;7.40;99.90;;;;;;6338481;22;20018;-89
2024/02/14 00:05:57;;;;;;;18.58;7.70;;;7.40;99.90;;;;;;6312361;22;20075;-89
2024/02/14 00:08:24;;;;;;;18.50;8.45;;;7.40;99.90;;;;;;6339338;22;20029;-91
2024/02/14 00:10:49;;;;;;;18.65;8.07;;;7.50;99.90;;;;;;6311642;22;20316;-90
2024/02/14 00:13:18;;;;;;;18.77;7.60;;;7.60;99.90;;;;;;6337916;22;20029;-90
2024/02/14 00:15:44;;;;;;;17.65;7.93;;;7.60;99.90;;;;;;6311971;22;20007;-89
2024/02/14 00:18:10;;;;;;;19.17;9.20;;;7.70;99.90;;;;;;6311085;22;20014;-90
2024/02/14 00:20:36;;;;;;;20.90;9.55;;;7.70;99.90;;;;;;6311234;22;20019;-89
2024/02/14 00:23:01;;;;;;;17.02;8.13;;;7.70;99.90;;;;;;6311958;22;20026;-89
2024/02/14 00:25:27;;;;;;;19.90;7.70;;;7.70;99.90;;;;;;6311931;22;20014;-90
2024/02/14 00:27:54;;;;;;;20.35;8.32;;;7.70;99.90;;;;;;6311676;22;20422;-89
2024/02/14 00:30:20;;;;;;;17.85;7.88;;;7.80;99.90;;;;;;6312560;22;20006;-89
2024/02/14 00:32:46;;;;;;;16.38;8.40;;;7.80;99.90;;;;;;6312105;22;20038;-88
2024/02/14 00:35:12;;;;;;;19.95;9.35;;;7.90;99.90;;;;;;6312731;22;20013;-90
2024/02/14 00:37:37;;;;;;;18.40;8.30;;;7.90;99.90;;;;;;6312179;22;20025;-89
2024/02/14 00:40:04;;;;;;;35.35;14.25;;;8.00;99.90;;;;;;6312660;22;20002;-89
2024/02/14 00:42:29;;;;;;;28.30;11.45;;;8.00;99.90;;;;;;6311250;22;20525;-89
2024/02/14 00:44:57;;;;;;;26.58;11.45;;;8.10;99.90;;;;;;6337700;22;20026;-90
2024/02/14 00:47:28;;;;;;;21.25;9.07;;;8.10;99.90;;;;;;6310813;22;20006;-89
2024/02/14 00:49:54;;;;;;;30.77;13.15;;;8.20;99.90;;;;;;6338702;22;20010;-89
2024/02/14 00:52:22;;;;;;;23.00;9.88;;;8.20;99.90;;;;;;6310876;22;20010;-91
2024/02/14 00:54:49;;;;;;;26.80;9.32;;;8.20;99.90;;;;;;6331358;22;20493;-88
2024/02/14 00:57:16;;;;;;;20.52;9.27;;;8.20;99.90;;;;;;6311558;22;20006;-89
2024/02/14 00:59:41;;;;;;;12.77;7.03;;;8.20;99.90;;;;;;6337035;22;20010;-89
2024/02/14 01:02:07;;;;;;;12.48;6.28;;;8.30;99.90;;;;;;6310846;22;20377;-88
2024/02/14 01:04:36;;;;;;;11.52;5.35;;;8.30;99.90;;;;;;6311922;22;20050;-89
2024/02/14 01:07:05;;;;;;;15.77;6.20;;;8.30;99.90;;;;;;6337370;22;20010;-88
2024/02/14 01:09:31;;;;;;;11.90;5.82;;;8.30;99.90;;;;;;6337847;22;20014;-90
2024/02/14 01:11:58;;;;;;;13.73;6.05;;;8.30;99.90;;;;;;6311302;22;20003;-89
2024/02/14 01:14:24;;;;;;;13.10;6.28;;;8.40;99.90;;;;;;6338694;22;20326;-88
2024/02/14 01:16:53;;;;;;;14.88;6.65;;;8.40;99.90;;;;;;6310909;22;19999;-89
2024/02/14 01:19:20;;;;;;;12.02;6.13;;;8.50;99.90;;;;;;6309111;22;20018;-88
2024/02/14 01:21:48;;;;;;;13.80;5.35;;;8.50;99.90;;;;;;6310760;22;20400;-88
2024/02/14 01:24:14;;;;;;;15.63;5.60;;;8.50;99.90;;;;;;6310949;22;20017;-88
2024/02/14 01:26:42;;;;;;;17.90;6.35;;;8.50;99.90;;;;;;6311518;22;20018;-88
2024/02/14 01:29:09;;;;;;;14.02;5.60;;;8.50;99.90;;;;;;6338216;22;20026;-90
2024/02/14 01:31:35;;;;;;;8.68;4.45;;;8.50;99.90;;;;;;6337078;22;20007;-88
2024/02/14 01:34:04;;;;;;;10.50;4.82;;;8.50;99.90;;;;;;6338702;22;20009;-88
2024/02/14 01:36:29;;;;;;;9.68;4.57;;;8.50;99.90;;;;;;6339449;22;20009;-88
2024/02/14 01:38:56;;;;;;;8.55;4.10;;;8.50;99.90;;;;;;6339104;22;20038;-88
2024/02/14 01:41:22;;;;;;;10.32;4.05;;;8.50;99.90;;;;;;6311668;22;20034;-88
2024/02/14 01:43:48;;;;;;;9.85;4.78;;;8.50;99.90;;;;;;6310713;22;20104;-88
2024/02/14 01:46:14;;;;;;;13.15;4.68;;;8.50;99.90;;;;;;6337738;22;20011;-88
2024/02/14 01:48:42;;;;;;;9.35;4.50;;;8.50;99.90;;;;;;6336870;22;20022;-88
2024/02/14 01:51:10;;;;;;;9.05;4.30;;;8.50;99.90;;;;;;6311190;22;20076;-88
2024/02/14 01:53:38;;;;;;;7.88;4.55;;;8.60;99.90;;;;;;6338528;22;20011;-89
2024/02/14 01:56:05;;;;;;;12.07;4.90;;;8.60;99.90;;;;;;6339825;22;20003;-89
2024/02/14 01:58:33;;;;;;;8.93;3.70;;;8.60;99.90;;;;;;6337214;22;20098;-89
2024/02/14 02:00:59;;;;;;;10.80;3.80;;;8.60;99.90;;;;;;6337685;22;20002;-87
2024/02/14 02:03:25;;;;;;;10.60;4.47;;;8.70;99.90;;;;;;6310476;22;20039;-88
2024/02/14 02:05:54;;;;;;;12.43;3.63;;;8.60;99.90;;;;;;6310933;22;20006;-89
2024/02/14 02:08:21;;;;;;;8.57;3.90;;;8.60;99.90;;;;;;6338769;22;20018;-89
2024/02/14 02:10:47;;;;;;;12.23;4.25;;;8.60;99.90;;;;;;6338729;22;20006;-89
2024/02/14 02:13:15;;;;;;;9.50;3.50;;;8.70;99.90;;;;;;6339183;22;20010;-88
2024/02/14 02:15:44;;;;;;;7.10;3.47;;;8.70;99.90;;;;;;6338943;22;20003;-88
2024/02/14 02:18:11;;;;;;;5.78;3.00;;;8.70;99.90;;;;;;6311443;22;20042;-89
2024/02/14 02:20:37;;;;;;;8.57;3.55;;;8.70;99.90;;;;;;6337806;22;20128;-87
2024/02/14 02:23:03;;;;;;;7.95;3.25;;;8.60;99.90;;;;;;6338045;22;20010;-88
2024/02/14 02:25:29;;;;;;;7.60;3.72;;;8.60;99.90;;;;;;6340149;22;20393;-88
2024/02/14 02:27:56;;;;;;;10.85;3.88;;;8.70;99.90;;;;;;6340742;22;20010;-88
2024/02/14 02:30:25;;;;;;;9.40;3.70;;;8.70;99.90;;;;;;6311632;22;20426;-88
2024/02/14 02:32:51;;;;;;;8.73;3.50;;;8.70;99.90;;;;;;6311471;22;20086;-88
2024/02/14 02:35:20;;;;;;;9.23;3.30;;;8.70;99.90;;;;;;6338613;22;20069;-88
2024/02/14 02:37:47;;;;;;;9.48;3.60;;;8.70;99.90;;;;;;6311983;22;20400;-89
2024/02/14 02:40:14;;;;;;;7.93;3.22;;;8.70;99.90;;;;;;6339575;22;20060;-89
2024/02/14 02:42:41;;;;;;;7.55;2.97;;;8.70;99.90;;;;;;6339964;22;20082;-89
2024/02/14 02:45:08;;;;;;;7.68;3.20;;;8.80;99.90;;;;;;6340454;22;20078;-88
2024/02/14 02:47:34;;;;;;;7.57;2.55;;;8.70;99.90;;;;;;6338294;22;20494;-90
2024/02/14 02:50:02;;;;;;;7.50;2.60;;;8.70;99.90;;;;;;6312283;22;20426;-89
2024/02/14 02:52:27;;;;;;;5.32;2.40;;;8.70;99.90;;;;;;6324464;22;20509;-87
2024/02/14 02:54:55;;;;;;;4.30;2.47;;;8.70;99.90;;;;;;6311346;22;20038;-88
2024/02/14 02:57:21;;;;;;;5.85;2.53;;;8.70;99.90;;;;;;6339374;22;20086;-88
2024/02/14 02:59:48;;;;;;;5.82;2.33;;;8.80;99.90;;;;;;6339327;22;20034;-89
2024/02/14 03:02:14;;;;;;;5.32;2.20;;;8.80;99.90;;;;;;6311767;22;20003;-89
2024/02/14 03:04:41;;;;;;;6.68;2.30;;;8.80;99.90;;;;;;6312235;22;20006;-88
2024/02/14 03:07:08;;;;;;;8.55;2.22;;;8.80;99.90;;;;;;6339541;22;20426;-88
2024/02/14 03:09:35;;;;;;;4.05;2.75;;;8.80;99.90;;;;;;6311656;22;20007;-88
2024/02/14 03:12:04;;;;;;;3.50;2.10;;;8.80;99.90;;;;;;6339010;22;20093;-88
2024/02/14 03:14:33;;;;;;;4.25;2.20;;;8.80;99.90;;;;;;6337762;22;20499;-89
2024/02/14 03:17:02;;;;;;;5.65;2.00;;;8.90;99.90;;;;;;6315074;22;20030;-89
2024/02/14 03:19:28;;;;;;;4.93;2.10;;;8.90;99.90;;;;;;6315703;22;20011;-89
2024/02/14 03:21:57;;;;;;;5.10;2.80;;;8.90;99.90;;;;;;6314174;22;20060;-88
2024/02/14 03:24:25;;;;;;;5.43;2.15;;;8.90;99.90;;;;;;6340307;22;19995;-88
2024/02/14 03:26:54;;;;;;;7.15;2.35;;;8.90;99.90;;;;;;6340368;22;20059;-88
2024/02/14 03:29:21;;;;;;;6.13;2.20;;;8.90;99.90;;;;;;6339265;22;20391;-88
2024/02/14 03:31:47;;;;;;;5.90;2.58;;;8.90;99.90;;;;;;6332766;22;20006;-88
2024/02/14 03:34:13;;;;;;;3.38;2.05;;;8.90;99.90;;;;;;6337984;22;19995;-89
2024/02/14 03:36:39;;;;;;;3.22;1.90;;;8.90;99.90;;;;;;6310500;22;20006;-88
2024/02/14 03:39:06;;;;;;;4.75;1.42;;;8.90;99.90;;;;;;6338306;22;20007;-88
2024/02/14 03:41:32;;;;;;;2.78;1.52;;;9.00;99.90;;;;;;6338549;22;20003;-88
2024/02/14 03:44:00;;;;;;;5.07;1.40;;;9.00;99.90;;;;;;6338798;22;20321;-88
2024/02/14 03:46:28;;;;;;;1.90;1.42;;;9.00;99.90;;;;;;6338611;22;20333;-90
2024/02/14 03:48:54;;;;;;;6.68;1.38;;;9.00;99.90;;;;;;6310416;22;20014;-90
2024/02/14 03:51:22;;;;;;;5.55;1.50;;;9.00;99.90;;;;;;6338107;22;19991;-87
2024/02/14 03:53:48;;;;;;;3.05;1.88;;;9.00;99.90;;;;;;6338054;22;20540;-88
2024/02/14 03:56:16;;;;;;;4.40;1.60;;;9.00;99.90;;;;;;6338726;22;20007;-88
2024/02/14 03:58:42;;;;;;;6.97;2.45;;;9.00;99.90;;;;;;6312560;22;20014;-88
2024/02/14 04:01:07;;;;;;;1.80;1.00;;;9.00;99.90;;;;;;6340227;22;20003;-88
2024/02/14 04:03:34;;;;;;;1.30;1.20;;;9.00;99.90;;;;;;6312243;22;20006;-88
2024/02/14 04:06:00;;;;;;;2.67;1.20;;;9.10;99.90;;;;;;6311810;22;20003;-89
2024/02/14 04:08:26;;;;;;;2.67;0.98;;;9.10;99.90;;;;;;6312705;22;20379;-88
2024/02/14 04:10:53;;;;;;;1.58;0.82;;;9.10;99.90;;;;;;6312508;22;20093;-87
2024/02/14 04:13:19;;;;;;;2.38;0.80;;;9.10;99.90;;;;;;6337620;22;20017;-88
2024/02/14 04:15:46;;;;;;;3.08;0.95;;;9.00;99.90;;;;;;6312177;22;20430;-88
2024/02/14 04:18:12;;;;;;;1.77;0.80;;;9.10;99.90;;;;;;6338157;22;20006;-88
2024/02/14 04:20:38;;;;;;;1.83;0.93;;;9.10;99.90;;;;;;6312005;22;20075;-88
2024/02/14 04:23:06;;;;;;;0.98;0.50;;;9.10;99.90;;;;;;6337848;22;20090;-88
2024/02/14 04:25:32;;;;;;;2.55;0.70;;;9.20;99.90;;;;;;6339547;22;20033;-88
2024/02/14 04:27:59;;;;;;;1.45;0.32;;;9.10;99.90;;;;;;6311586;22;20507;-88
2024/02/14 04:30:25;;;;;;;0.45;0.40;;;9.10;99.90;;;;;;6310912;22;20029;-89
2024/02/14 04:32:51;;;;;;;0.68;0.40;;;9.10;99.90;;;;;;6311274;22;20089;-89
2024/02/14 04:35:20;;;;;;;0.50;0.40;;;9.20;99.90;;;;;;6312282;22;20373;-89
2024/02/14 04:37:47;;;;;;;0.22;0.22;;;9.10;99.90;;;;;;6312362;22;20014;-89
2024/02/14 04:40:14;;;;;;;1.02;0.47;;;9.10;99.90;;;;;;6311859;22;20002;-89
2024/02/14 04:42:40;;;;;;;0.32;0.30;;;9.10;99.90;;;;;;6311814;22;19999;-89
2024/02/14 04:45:08;;;;;;;0.30;0.30;;;9.10;99.90;;;;;;6312329;22;20035;-89
2024/02/14 04:47:34;;;;;;;0.43;0.30;;;9.10;99.90;;;;;;6311637;22;20011;-88
2024/02/14 04:50:00;;;;;;;0.50;0.30;;;9.20;99.90;;;;;;6311307;22;20068;-88
2024/02/14 04:52:26;;;;;;;0.55;0.32;;;9.20;99.90;;;;;;6312487;22;20334;-89
2024/02/14 04:54:52;;;;;;;2.17;0.50;;;9.20;99.90;;;;;;6311080;22;20013;-88
2024/02/14 04:57:21;;;;;;;0.40;0.40;;;9.20;99.90;;;;;;6311266;22;19999;-88
2024/02/14 04:59:46;;;;;;;2.80;0.52;;;9.30;99.90;;;;;;6312115;22;20367;-88
2024/02/14 05:02:12;;;;;;;1.85;0.47;;;9.30;99.90;;;;;;6310733;22;20041;-89
2024/02/14 05:04:39;;;;;;;2.10;0.50;;;9.30;99.90;;;;;;6338631;22;20011;-89
2024/02/14 05:07:05;;;;;;;0.80;0.32;;;9.30;99.90;;;;;;6309858;22;19999;-89
2024/02/14 05:09:30;;;;;;;0.70;0.38;;;9.40;99.90;;;;;;6311606;22;20418;-89
2024/02/14 05:11:56;;;;;;;0.40;0.40;;;9.30;99.90;;;;;;6338759;22;20454;-89
2024/02/14 05:14:23;;;;;;;0.47;0.30;;;9.40;99.90;;;;;;6311578;22;20006;-89
2024/02/14 05:16:49;;;;;;;0.57;0.40;;;9.40;99.90;;;;;;6337057;22;20122;-88
2024/02/14 05:19:14;;;;;;;0.30;0.20;;;9.40;99.90;;;;;;6336463;22;20094;-88
2024/02/14 05:21:40;;;;;;;0.30;0.30;;;9.30;99.90;;;;;;6337124;22;20014;-89
2024/02/14 05:24:06;;;;;;;1.15;0.28;;;9.40;99.90;;;;;;6311347;22;20057;-89
2024/02/14 05:26:32;;;;;;;0.57;0.30;;;9.40;99.90;;;;;;6312558;22;20028;-87
2024/02/14 05:28:59;;;;;;;0.22;0.22;;;9.40;99.90;;;;;;6310963;22;20006;-88
2024/02/14 05:31:24;;;;;;;0.20;0.20;;;9.40;99.90;;;;;;6338809;22;19999;-88
2024/02/14 05:33:50;;;;;;;0.98;0.43;;;9.40;99.90;;;;;;6311535;22;20044;-89
2024/02/14 05:36:16;;;;;;;0.17;0.17;;;9.40;99.90;;;;;;6310232;22;20010;-89
2024/02/14 05:38:43;;;;;;;0.43;0.32;;;9.40;99.90;;;;;;6310998;22;20025;-87
2024/02/14 05:41:10;;;;;;;0.98;0.13;;;9.40;99.90;;;;;;6311419;22;19999;-88
2024/02/14 05:43:36;;;;;;;0.15;0.15;;;9.40;99.90;;;;;;6311019;22;19999;-89
2024/02/14 05:46:02;;;;;;;1.48;0.40;;;9.40;99.90;;;;;;6310753;22;19999;-88
2024/02/14 05:48:28;;;;;;;1.38;0.70;;;9.40;99.90;;;;;;6310632;22;20090;-88
2024/02/14 05:50:54;;;;;;;2.30;1.10;;;9.40;99.90;;;;;;6311400;22;20098;-88
2024/02/14 05:53:20;;;;;;;1.40;1.10;;;9.50;99.90;;;;;;6311347;22;20034;-88
2024/02/14 05:55:45;;;;;;;1.00;0.90;;;9.60;99.90;;;;;;6311362;22;20007;-88
2024/02/14 05:58:12;;;;;;;2.72;1.00;;;9.60;99.90;;;;;;6311279;22;20007;-89
2024/02/14 06:00:38;;;;;;;2.17;0.90;;;9.60;99.90;;;;;;6311803;22;20486;-88
2024/02/14 06:03:06;;;;;;;2.50;0.90;;;9.60;99.90;;;;;;6310398;22;20011;-88
2024/02/14 06:05:31;;;;;;;3.45;1.02;;;9.70;99.90;;;;;;6310963;22;20388;-88
2024/02/14 06:07:57;;;;;;;0.95;0.93;;;9.70;99.90;;;;;;6310651;22;20017;-88
2024/02/14 06:10:25;;;;;;;2.72;0.95;;;9.70;99.90;;;;;;6311060;22;20130;-90
2024/02/14 06:12:52;;;;;;;1.23;0.93;;;9.70;99.90;;;;;;6340017;22;19999;-88
2024/02/14 06:15:18;;;;;;;1.30;0.93;;;9.80;99.90;;;;;;6312051;22;20052;-89
2024/02/14 06:17:44;;;;;;;1.25;0.80;;;9.80;99.90;;;;;;6338439;22;20010;-89
2024/02/14 06:20:12;;;;;;;0.60;0.60;;;9.80;99.90;;;;;;6312877;22;20010;-89
2024/02/14 06:22:38;;;;;;;0.90;0.80;;;9.80;99.90;;;;;;6344261;22;20003;-89
2024/02/14 06:25:05;;;;;;;1.70;0.88;;;9.80;99.90;;;;;;6372209;22;20555;-89
2024/02/14 06:27:32;;;;;;;0.88;0.73;;;9.90;99.90;;;;;;6344618;22;20029;-88
2024/02/14 06:29:59;;;;;;;2.17;1.02;;;9.90;99.90;;;;;;6317271;22;20020;-91
2024/02/14 06:32:25;;;;;;;2.38;1.30;;;9.90;99.90;;;;;;6343047;22;20076;-90
2024/02/14 06:34:50;;;;;;;1.35;1.25;;;10.00;99.90;;;;;;6342593;22;20007;-90
2024/02/14 06:37:17;;;;;;;1.52;1.30;;;10.00;99.90;;;;;;6342611;22;20093;-89
2024/02/14 06:39:42;;;;;;;3.47;1.65;;;10.10;99.90;;;;;;6342228;22;20072;-89
2024/02/14 06:42:08;;;;;;;2.35;1.30;;;10.10;99.90;;;;;;6341931;22;19998;-89
2024/02/14 06:44:34;;;;;;;2.83;1.60;;;10.10;99.90;;;;;;6341727;22;20338;-88
2024/02/14 06:46:59;;;;;;;3.33;1.48;;;10.10;99.90;;;;;;6342221;22;20010;-89
2024/02/14 06:49:25;;;;;;;2.55;1.30;;;10.10;99.90;;;;;;6342030;22;20002;-89
2024/02/14 06:51:51;;;;;;;2.38;1.55;;;10.20;99.90;;;;;;6341852;22;20430;-89
2024/02/14 06:54:19;;;;;;;1.42;1.33;;;10.20;99.90;;;;;;6341529;22;20318;-89
2024/02/14 06:56:45;;;;;;;1.38;1.25;;;10.20;99.90;;;;;;6341586;22;20325;-87
2024/02/14 06:59:10;;;;;;;4.45;1.55;;;10.20;99.90;;;;;;6341692;22;20059;-88
2024/02/14 07:01:36;;;;;;;2.28;1.38;;;10.20;99.90;;;;;;6341168;22;20055;-89
2024/02/14 07:04:03;;;;;;;4.22;1.67;;;10.20;99.90;;;;;;6341612;22;20013;-88
2024/02/14 07:06:28;;;;;;;5.53;2.00;;;10.20;99.90;;;;;;6341131;22;20007;-89
2024/02/14 07:08:54;;;;;;;4.03;1.70;;;10.30;99.90;;;;;;6340607;22;20346;-88
2024/02/14 07:11:20;;;;;;;2.60;1.60;;;10.30;99.90;;;;;;6341397;22;20013;-89
2024/02/14 07:13:46;;;;;;;2.33;1.70;;;10.30;99.90;;;;;;6367627;22;20013;-88
2024/02/14 07:16:12;;;;;;;2.47;1.80;;;10.30;99.90;;;;;;6340415;22;20073;-88
2024/02/14 07:18:37;;;;;;;4.15;2.13;;;10.30;99.90;;;;;;6341499;22;20451;-89
2024/02/14 07:21:03;;;;;;;3.65;2.35;;;10.30;99.90;;;;;;6340609;22;20389;-89
2024/02/14 07:23:29;;;;;;;3.72;2.20;;;10.30;99.90;;;;;;6341153;22;20003;-88
2024/02/14 07:25:55;;;;;;;2.63;2.20;;;10.30;99.90;;;;;;6341169;22;20040;-89
2024/02/14 07:28:21;;;;;;;4.18;2.35;;;10.30;99.90;;;;;;6341320;22;20009;-89
2024/02/14 07:30:46;;;;;;;4.70;2.58;;;10.30;99.90;;;;;;6343257;22;20716;-89
2024/02/14 07:33:12;;;;;;;5.63;2.30;;;10.30;99.90;;;;;;6343833;22;20085;-89
2024/02/14 07:35:38;;;;;;;3.83;2.00;;;10.30;99.90;;;;;;6343858;22;20028;-89
2024/02/14 07:38:04;;;;;;;4.30;2.75;;;10.30;99.90;;;;;;6343682;22;20069;-89
2024/02/14 07:40:31;;;;;;;2.33;2.00;;;10.30;99.90;;;;;;6343148;22;20085;-88
2024/02/14 07:43:00;;;;;;;3.60;2.13;;;10.30;99.90;;;;;;6343139;22;20372;-89
2024/02/14 07:45:26;;;;;;;3.40;2.00;;;10.20;99.90;;;;;;6371439;22;20414;-89
2024/02/14 07:47:52;;;;;;;4.43;2.33;;;10.20;99.90;;;;;;6343692;22;20003;-89
2024/02/14 07:50:18;;;;;;;4.35;2.38;;;10.20;99.90;;;;;;6344665;22;19998;-89
2024/02/14 07:52:45;;;;;;;2.20;2.00;;;10.20;99.90;;;;;;6345249;22;20089;-89
2024/02/14 07:55:13;;;;;;;3.33;1.85;;;10.20;99.90;;;;;;6320160;22;20074;-89
2024/02/14 07:57:42;;;;;;;4.80;2.10;;;10.20;99.90;;;;;;6346413;22;20085;-88
2024/02/14 08:00:10;;;;;;;5.90;2.30;;;10.20;99.90;;;;;;6346376;22;20006;-90
2024/02/14 08:02:37;;;;;;;5.53;2.20;;;10.20;99.90;;;;;;6374000;22;20052;-88
2024/02/14 08:05:04;;;;;;;3.80;2.28;;;10.20;99.90;;;;;;6345998;22;20037;-89
2024/02/14 08:07:30;;;;;;;4.38;2.33;;;10.20;99.90;;;;;;6373676;22;19999;-89
2024/02/14 08:09:57;;;;;;;2.97;1.90;;;10.30;99.90;;;;;;6344992;22;20373;-89
2024/02/14 08:12:24;;;;;;;4.95;2.38;;;10.30;99.90;;;;;;6343818;22;20010;-89
2024/02/14 08:14:53;;;;;;;5.50;2.47;;;10.30;99.90;;;;;;6343479;22;20391;-89
2024/02/14 08:17:19;;;;;;;6.32;2.60;;;10.30;99.90;;;;;;6371757;22;20030;-88
2024/02/14 08:19:44;;;;;;;7.95;2.42;;;10.30;99.90;;;;;;6371509;22;20322;-89
2024/02/14 08:22:10;;;;;;;7.88;2.50;;;10.30;99.90;;;;;;6371702;22;20052;-89
2024/02/14 08:24:36;;;;;;;9.45;3.38;;;10.30;99.90;;;;;;6344167;22;20456;-89
2024/02/14 08:27:01;;;;;;;7.25;2.60;;;10.30;99.90;;;;;;6343601;22;20048;-89
2024/02/14 08:29:27;;;;;;;11.98;2.83;;;10.30;99.90;;;;;;6344385;22;20089;-88
2024/02/14 08:31:54;;;;;;;7.50;2.70;;;10.40;99.90;;;;;;6344277;22;20010;-88
2024/02/14 08:34:20;;;;;;;8.65;2.80;;;10.40;99.90;;;;;;6372371;22;20421;-88
2024/02/14 08:36:46;;;;;;;8.15;2.70;;;10.40;99.90;;;;;;6343739;22;19999;-89
2024/02/14 08:39:11;;;;;;;9.18;2.53;;;10.50;99.90;;;;;;6346212;22;20017;-89
2024/02/14 08:41:38;;;;;;;8.75;2.15;;;10.50;99.90;;;;;;6351581;22;19999;-89
2024/02/14 08:44:04;;;;;;;7.20;2.75;;;10.50;99.90;;;;;;6359236;22;20010;-89
2024/02/14 08:46:31;;;;;;;8.70;2.60;;;10.60;99.90;;;;;;6362212;22;19998;-89
2024/02/14 08:48:59;;;;;;;8.10;2.08;;;10.60;99.90;;;;;;6360493;22;19998;-89
2024/02/14 08:51:24;;;;;;;7.32;2.08;;;10.60;99.90;;;;;;6358201;22;20010;-89
2024/02/14 08:53:54;;;;;;;5.40;1.88;;;10.60;99.90;;;;;;6361965;22;19989;-89
2024/02/14 08:56:21;;;;;;;8.95;2.33;;;10.60;99.90;;;;;;6362012;22;20035;-90
2024/02/14 08:58:46;;;;;;;9.55;2.33;;;10.60;99.90;;;;;;6353537;22;20022;-88
2024/02/14 09:01:12;;;;;;;10.63;2.08;;;10.60;99.90;;;;;;6343062;22;20065;-89
2024/02/14 09:03:39;;;;;;;9.18;2.88;;;10.60;99.90;;;;;;6342720;22;20002;-90
2024/02/14 09:06:05;;;;;;;6.72;2.33;;;10.70;99.90;;;;;;6342432;22;19998;-90
2024/02/14 09:08:31;;;;;;;11.55;2.83;;;10.70;99.90;;;;;;6342685;22;20017;-89
2024/02/14 09:10:59;;;;;;;7.05;2.88;;;10.70;99.90;;;;;;6342338;22;20002;-89
2024/02/14 09:13:25;;;;;;;12.20;4.93;;;10.70;99.90;;;;;;6341473;22;20440;-89
2024/02/14 09:15:52;;;;;;;7.63;4.43;;;10.70;99.90;;;;;;6341788;22;20009;-89
2024/02/14 09:18:19;;;;;;;9.40;4.70;;;10.80;99.90;;;;;;6342299;22;20009;-88
2024/02/14 09:20:46;;;;;;;8.35;3.72;;;10.80;99.90;;;;;;6344045;22;20079;-90
2024/02/14 09:23:20;;;;;;;8.05;4.15;;;10.90;99.90;;;;;;6341846;22;20414;-87
2024/02/14 09:25:47;;;;;;;13.57;3.60;;;10.90;99.90;;;;;;6341926;22;20007;-88
2024/02/14 09:28:14;;;;;;;7.20;3.50;;;10.90;99.90;;;;;;6342337;22;20089;-89
2024/02/14 09:30:39;;;;;;;5.53;2.50;;;10.90;99.90;;;;;;6342872;22;20002;-89
2024/02/14 09:33:06;;;;;;;9.20;2.78;;;11.00;99.90;;;;;;6341854;22;20113;-89
2024/02/14 09:35:32;;;;;;;9.13;2.92;;;11.00;99.90;;;;;;6341659;22;20010;-89
2024/02/14 09:37:59;;;;;;;6.43;2.53;;;11.10;99.90;;;;;;6341760;22;20010;-88
2024/02/14 09:40:25;;;;;;;10.20;2.63;;;11.10;99.90;;;;;;6341636;22;20011;-88
2024/02/14 09:42:57;;;;;;;8.45;2.63;;;11.10;99.90;;;;;;6341765;22;20002;-88
2024/02/14 09:45:27;;;;;;;7.97;2.40;;;11.10;99.90;;;;;;6341990;22;20140;-88
2024/02/14 09:47:55;;;;;;;9.20;2.05;;;11.20;99.90;;;;;;6341951;22;20002;-88
2024/02/14 09:50:21;;;;;;;6.63;2.55;;;11.20;99.90;;;;;;6342027;22;19998;-88
2024/02/14 09:52:48;;;;;;;4.97;1.83;;;11.20;99.90;;;;;;6368945;22;20527;-89
2024/02/14 09:55:15;;;;;;;5.80;1.70;;;11.20;99.90;;;;;;6341893;22;20491;-89
2024/02/14 09:57:42;;;;;;;5.57;1.70;;;11.30;99.90;;;;;;6342173;22;20037;-90
2024/02/14 10:00:14;;;;;;;4.00;1.90;;;11.30;99.90;;;;;;6342858;22;20006;-90
2024/02/14 10:02:40;;;;;;;3.17;2.05;;;11.30;99.90;;;;;;6342030;22;20002;-89
2024/02/14 10:05:06;;;;;;;6.28;2.05;;;11.30;99.90;;;;;;6342595;22;20081;-88
2024/02/14 10:07:43;;;;;;;4.00;1.85;;;11.30;99.90;;;;;;6342931;22;20078;-90
2024/02/14 10:10:10;;;;;;;4.70;2.13;;;11.30;99.90;;;;;;6342755;22;20002;-91
2024/02/14 10:12:36;;;;;;;3.13;2.10;;;11.30;99.90;;;;;;6341690;22;20001;-90
2024/02/14 10:15:02;;;;;;;2.75;1.38;;;11.30;99.90;;;;;;6341357;22;20006;-90
2024/02/14 10:17:28;;;;;;;1.88;1.40;;;11.30;99.90;;;;;;6370203;22;20033;-90
2024/02/14 10:20:05;;;;;;;1.85;1.17;;;11.40;99.90;;;;;;6341659;22;20449;-89
2024/02/14 10:22:38;;;;;;;2.10;1.33;;;11.40;99.90;;;;;;6341696;22;20118;-89
2024/02/14 10:25:08;;;;;;;5.28;1.60;;;11.40;99.90;;;;;;6341864;22;20007;-90
2024/02/14 10:27:38;;;;;;;1.10;1.00;;;11.40;99.90;;;;;;6342245;22;20002;-88
2024/02/14 10:30:10;;;;;;;1.97;1.10;;;11.40;99.90;;;;;;6340719;22;20519;-89
2024/02/14 10:32:37;;;;;;;1.17;1.05;;;11.40;99.90;;;;;;6341388;22;20379;-88
2024/02/14 10:35:11;;;;;;;1.48;0.93;;;11.30;99.90;;;;;;6341039;22;20093;-88
2024/02/14 10:37:37;;;;;;;0.80;0.80;;;11.40;99.90;;;;;;6341895;22;20006;-88
2024/02/14 10:40:04;;;;;;;1.08;0.98;;;11.30;99.90;;;;;;6339704;22;20374;-87
2024/02/14 10:42:33;;;;;;;0.80;0.70;;;11.40;99.90;;;;;;6341077;22;20006;-88
2024/02/14 10:45:00;;;;;;;0.82;0.75;;;11.40;99.90;;;;;;6342239;22;20005;-89
2024/02/14 10:47:35;;;;;;;2.25;0.90;;;11.40;99.90;;;;;;6342676;22;20007;-89
2024/02/14 10:50:05;;;;;;;0.80;0.80;;;11.40;99.90;;;;;;6342647;22;20006;-89
2024/02/14 10:52:41;;;;;;;0.65;0.63;;;11.40;99.90;;;;;;6343284;22;19999;-87
2024/02/14 10:55:09;;;;;;;2.03;0.82;;;11.40;99.90;;;;;;6343140;22;20453;-88
2024/02/14 10:57:35;;;;;;;0.57;0.57;;;11.50;99.90;;;;;;6342258;22;20010;-88
2024/02/14 11:00:07;;;;;;;0.68;0.68;;;11.50;99.90;;;;;;6347193;22;20437;-88
2024/02/14 11:02:33;;;;;;;0.93;0.57;;;11.60;99.90;;;;;;6348875;22;20063;-89
2024/02/14 11:05:00;;;;;;;1.13;0.70;;;11.70;99.90;;;;;;6351806;22;20010;-90
2024/02/14 11:07:28;;;;;;;0.40;0.40;;;11.90;99.90;;;;;;6346476;22;20485;-89
2024/02/14 11:10:04;;;;;;;0.40;0.40;;;12.10;99.90;;;;;;6344138;22;20013;-90
2024/02/14 11:12:36;;;;;;;1.63;1.50;;;12.40;99.90;;;;;;6344133;22;19998;-89
2024/02/14 11:15:10;;;;;;;1.67;0.77;;;12.50;99.90;;;;;;6343688;22;20007;-89
2024/02/14 11:17:36;;;;;;;0.55;0.55;;;12.60;99.90;;;;;;6344381;22;19998;-90
2024/02/14 11:20:14;;;;;;;0.80;0.80;;;12.60;99.90;;;;;;6344075;22;20108;-89
2024/02/14 11:22:39;;;;;;;3.15;1.00;;;12.70;99.90;;;;;;6343706;22;20021;-88
2024/02/14 11:25:07;;;;;;;2.20;1.00;;;12.70;99.90;;;;;;6317673;22;20029;-89
2024/02/14 11:27:33;;;;;;;6.03;1.02;;;12.80;99.90;;;;;;6343893;22;20438;-89
2024/02/14 11:29:59;;;;;;;2.25;1.17;;;12.80;99.90;;;;;;6344002;22;20064;-89
2024/02/14 11:32:28;;;;;;;3.08;0.90;;;12.80;99.90;;;;;;6343279;22;20034;-89
2024/02/14 11:34:56;;;;;;;3.42;0.95;;;12.80;99.90;;;;;;6343320;22;20456;-90
2024/02/14 11:37:31;;;;;;;3.10;0.90;;;12.90;99.90;;;;;;6343445;22;20590;-89
2024/02/14 11:39:57;;;;;;;1.70;0.77;;;12.90;99.90;;;;;;6341509;22;20010;-88
2024/02/14 11:42:24;;;;;;;1.70;0.70;;;12.90;99.90;;;;;;6342472;22;20011;-88
2024/02/14 11:44:50;;;;;;;2.70;1.05;;;12.90;99.90;;;;;;6343165;22;20029;-88
2024/02/14 11:47:16;;;;;;;1.27;0.90;;;12.90;99.90;;;;;;6343289;22;20002;-89
2024/02/14 11:49:41;;;;;;;2.95;0.90;;;12.80;99.90;;;;;;6342011;22;20330;-90
2024/02/14 11:52:12;;;;;;;2.65;1.35;;;12.80;99.90;;;;;;6342338;22;20006;-91
2024/02/14 11:54:38;;;;;;;4.63;0.95;;;12.90;99.90;;;;;;6342248;22;20006;-89
2024/02/14 11:57:04;;;;;;;3.90;0.90;;;12.90;99.90;;;;;;6342820;22;20094;-90
2024/02/14 11:59:29;;;;;;;2.90;1.67;;;13.00;99.90;;;;;;6342894;22;20014;-90
2024/02/14 12:01:58;;;;;;;1.23;0.60;;;13.00;99.90;;;;;;6370802;22;20503;-89
2024/02/14 12:04:24;;;;;;;1.65;0.80;;;13.10;99.90;;;;;;6342591;22;20010;-89
2024/02/14 12:06:50;;;;;;;2.88;0.70;;;13.10;99.90;;;;;;6370077;22;20002;-89
2024/02/14 12:09:16;;;;;;;1.58;0.65;;;13.30;99.90;;;;;;6342143;22;20010;-90
2024/02/14 12:11:43;;;;;;;1.65;0.60;;;13.50;99.90;;;;;;6342725;22;19998;-90
2024/02/14 12:14:09;;;;;;;3.88;0.57;;;13.60;99.90;;;;;;6342370;22;20104;-89
2024/02/14 12:16:40;;;;;;;0.93;0.60;;;13.70;99.90;;;;;;6341229;22;20006;-89
2024/02/14 12:19:15;;;;;;;0.70;0.38;;;13.80;99.90;;;;;;6342404;22;20040;-88
2024/02/14 12:21:41;;;;;;;2.00;0.95;;;13.80;99.90;;;;;;6342052;22;20445;-88
2024/02/14 12:24:10;;;;;;;1.17;0.60;;;13.70;99.90;;;;;;6343329;22;20003;-89
2024/02/14 12:26:37;;;;;;;1.50;0.60;;;13.60;99.90;;;;;;6343724;22;19999;-89
2024/02/14 12:29:04;;;;;;;4.75;0.50;;;13.50;99.90;;;;;;6342192;22;20011;-91
2024/02/14 12:31:33;;;;;;;2.78;0.60;;;13.40;99.90;;;;;;6342037;22;19998;-91
2024/02/14 12:33:59;;;;;;;1.17;0.73;;;13.30;99.90;;;;;;6342146;22;20002;-86
2024/02/14 12:36:35;;;;;;;1.02;0.75;;;13.10;99.90;;;;;;6342798;22;20006;-87
2024/02/14 12:39:02;;;;;;;2.30;0.70;;;13.10;99.90;;;;;;6370293;22;20013;-89
2024/02/14 12:41:33;;;;;;;2.72;0.98;;;13.00;99.90;;;;;;6342301;22;20002;-89
2024/02/14 12:43:59;;;;;;;;;;;13.00;99.90;;;;;;6342845;22;20094;-88
2024/02/14 12:46:26;;;;;;;0.63;0.50;;;13.00;99.90;;;;;;6342380;22;20385;-89
2024/02/14 12:48:51;;;;;;;0.57;0.55;;;13.00;99.90;;;;;;6342409;22;20010;-88